Latest Weather Observations for Witchcliffe

IDW60801

Issued at 3:33 pm WST Wednesday 26 April 2017 (issued every 30 minutes, with the page automatically refreshed every 10 minutes)

About weather observations | Map of weather stations | Latest weather observations for WA | Other Formats
Station Details ID: 009746 Name: WITCHCLIFFE Lat: -34.03 Lon: 115.10 Height: 80.0 m
Data from the previous 72 hours. | See also: Recent months at Witchcliffe
Date/Time
WST
Temp
°C
App
Temp
°C
Dew
Point
°C
Rel
Hum
%
Delta-T
°C
Wind Press
QNH
hPa
Press
MSL
hPa
Rain since
9am
mm
Dir  Spd
km/h
Gust
km/h
Spd
kts
Gust
kts
26/03:30pm 20.1 17.0 12.1 60 4.5 SW 20 26 11 14 1026.3 1026.2 0.0
26/03:00pm 22.0 19.8 7.8 40 7.4 SSW 9 15 5 8 1026.1 1026.0 0.0
26/02:30pm 21.7 19.7 7.2 39 7.5 SW 7 15 4 8 1026.2 1026.1 0.0
26/02:00pm 21.4 19.3 6.5 38 7.5 S 7 11 4 6 1026.3 1026.2 0.0
26/01:30pm 21.2 18.7 6.7 39 7.4 ENE 9 13 5 7 1026.4 1026.3 0.0
26/01:00pm 21.3 19.5 7.9 42 7.0 NNW 7 11 4 6 1026.8 1026.7 0.0
26/12:30pm 20.2 18.9 9.2 49 5.8 SE 6 13 3 7 1027.3 1027.2 0.0
26/12:00pm 19.9 18.1 9.5 51 5.5 SSW 9 15 5 8 1027.7 1027.6 0.0
26/11:30am 19.1 16.9 9.3 53 5.2 ESE 11 17 6 9 1028.2 1028.1 0.0
26/11:00am 18.9 17.7 11.7 63 4.0 SE 9 17 5 9 1028.4 1028.3 0.0
26/10:30am 18.3 17.1 11.6 65 3.7 ESE 9 17 5 9 1028.5 1028.4 0.0
26/10:00am 17.7 16.7 12.2 70 3.0 NE 9 17 5 9 1028.6 1028.5 0.0
26/09:30am 16.8 18.2 16.3 97 0.3 E 4 13 2 7 1028.6 1028.5 0.0
26/09:00am 14.1 15.4 14.1 100 0.0 CALM 0 0 0 0 1028.8 1028.7 0.2
26/08:30am 12.5 13.3 12.5 100 0.0 CALM 0 0 0 0 1028.6 1028.5 0.2
26/08:00am 10.3 10.4 10.1 99 0.1 CALM 0 0 0 0 1028.4 1028.3 0.2
26/07:30am 9.0 8.8 8.9 99 0.0 CALM 0 0 0 0 1028.0 1027.9 0.2
26/07:00am 8.4 8.0 8.3 99 0.0 CALM 0 0 0 0 1027.9 1027.8 0.2
26/06:30am 8.2 7.8 8.1 99 0.0 CALM 0 0 0 0 1027.9 1027.8 0.2
26/06:00am 8.5 8.1 8.4 99 0.0 CALM 0 0 0 0 1028.0 1027.9 0.2
26/05:30am 8.2 7.8 8.1 99 0.0 CALM 0 0 0 0 1027.7 1027.6 0.2
26/05:00am 8.0 7.5 7.9 99 0.0 CALM 0 0 0 0 1027.9 1027.8 0.0
26/04:30am 8.0 7.5 7.9 99 0.0 CALM 0 0 0 0 1028.0 1027.9 0.0
26/04:00am 7.5 6.9 7.4 99 0.0 CALM 0 0 0 0 1028.1 1028.0 0.0
26/03:30am 7.3 6.7 7.2 99 0.0 CALM 0 0 0 0 1028.1 1028.0 0.0
26/03:00am 7.6 7.0 7.5 99 0.0 CALM 0 0 0 0 1028.1 1028.0 0.0
26/02:30am 6.6 5.8 6.5 99 0.0 CALM 0 0 0 0 1028.2 1028.1 0.0
26/02:00am 6.7 5.9 6.6 99 0.0 CALM 0 0 0 0 1028.2 1028.1 0.0
26/01:30am 6.7 5.9 6.6 99 0.0 CALM 0 0 0 0 1028.1 1028.0 0.0
26/01:00am 7.0 6.3 6.9 99 0.0 CALM 0 0 0 0 1028.1 1028.0 0.0
26/12:30am 7.5 6.9 7.4 99 0.0 CALM 0 0 0 0 1028.2 1028.1 0.0
26/12:00am 7.5 6.9 7.4 99 0.0 CALM 0 0 0 0 1028.2 1028.1 0.0
 
Date/Time
WST
Temp
°C
App
Temp
°C
Dew
Point
°C
Rel
Hum
%
Delta-T
°C
Wind Press
QNH
hPa
Press
MSL
hPa
Rain since
9am
mm
Dir  Spd
km/h
Gust
km/h
Spd
kts
Gust
kts
25/11:30pm 8.0 7.5 7.7 98 0.1 CALM 0 0 0 0 1028.1 1028.0 0.0
25/11:00pm 8.0 7.4 7.6 97 0.2 CALM 0 0 0 0 1028.1 1028.0 0.0
25/10:30pm 9.6 9.5 9.3 98 0.1 CALM 0 0 0 0 1028.2 1028.1 0.0
25/10:00pm 9.0 8.6 8.2 95 0.4 CALM 0 0 0 0 1028.1 1028.0 0.0
25/09:30pm 10.1 10.0 9.3 95 0.4 CALM 0 0 0 0 1027.9 1027.8 0.0
25/09:00pm 10.2 10.0 9.1 93 0.5 CALM 0 0 0 0 1028.0 1027.9 0.0
25/08:30pm 11.4 11.5 10.0 91 0.7 CALM 0 0 0 0 1027.9 1027.8 0.0
25/08:00pm 12.1 12.2 10.3 89 0.9 CALM 0 0 0 0 1027.9 1027.8 0.0
25/07:30pm 13.3 12.4 11.4 88 1.0 S 7 9 4 5 1027.6 1027.5 0.0
25/07:00pm 13.7 12.8 11.2 85 1.3 S 7 9 4 5 1027.4 1027.3 0.0
25/06:30pm 13.9 14.2 10.9 82 1.6 CALM 0 0 0 0 1027.2 1027.1 0.0
25/06:00pm 15.2 15.2 11.0 76 2.2 S 2 6 1 3 1026.9 1026.8 0.0
25/05:30pm 16.5 14.9 11.4 72 2.8 SSE 11 15 6 8 1026.7 1026.6 0.0
25/05:00pm 17.6 14.9 11.6 68 3.3 S 17 22 9 12 1026.5 1026.4 0.0
25/04:30pm 17.5 15.7 12.2 71 2.9 S 13 19 7 10 1026.4 1026.3 0.0
25/04:00pm 18.1 15.9 12.1 68 3.3 SSW 15 22 8 12 1026.3 1026.2 0.0
25/03:30pm 18.4 16.0 11.5 64 3.8 S 15 22 8 12 1026.0 1025.9 0.0
25/03:00pm 18.8 17.6 12.8 68 3.4 SW 11 19 6 10 1025.8 1025.7 0.0
25/02:30pm 19.0 18.4 13.6 71 3.1 SSW 9 15 5 8 1025.7 1025.6 0.0
25/02:00pm 18.6 17.1 13.2 71 3.0 WSW 13 19 7 10 1025.7 1025.6 0.0
25/01:30pm 19.6 18.1 11.9 61 4.3 WSW 11 17 6 9 1025.6 1025.5 0.0
25/01:00pm 21.1 20.3 12.8 59 4.7 WSW 9 17 5 9 1025.7 1025.6 0.0
25/12:30pm 20.4 19.6 12.9 62 4.3 SW 9 19 5 10 1026.2 1026.1 0.0
25/12:00pm 19.1 18.0 11.9 63 4.0 WSW 9 13 5 7 1026.7 1026.6 0.0
25/11:30am 19.0 18.1 12.7 67 3.5 WSW 9 13 5 7 1026.9 1026.8 0.0
25/11:00am 17.8 17.0 11.8 68 3.3 SSW 7 13 4 7 1027.3 1027.2 0.0
25/10:30am 18.5 18.9 11.3 63 3.9 CALM 0 0 0 0 1027.3 1027.2 0.0
25/10:00am 17.3 15.8 10.7 65 3.5 N 9 13 5 7 1027.4 1027.3 0.0
25/09:30am 17.7 18.1 11.3 66 3.5 CALM 0 0 0 0 1027.4 1027.3 0.0
25/09:00am 16.8 17.0 14.8 88 1.2 N 7 9 4 5 1027.3 1027.2 0.0
25/08:30am 12.2 12.8 12.0 99 0.1 CALM 0 9 0 5 1027.4 1027.3 0.0
25/08:00am 9.6 9.5 9.5 99 0.0 CALM 0 0 0 0 1027.1 1027.0 0.0
25/07:30am 7.9 7.4 7.8 99 0.0 CALM 0 0 0 0 1026.9 1026.8 0.0
25/07:00am 7.1 6.4 7.0 99 0.0 CALM 0 0 0 0 1026.6 1026.5 0.0
25/06:30am 7.8 7.3 7.7 99 0.0 CALM 0 0 0 0 1026.4 1026.3 0.0
25/06:00am 7.3 6.7 7.2 99 0.0 CALM 0 0 0 0 1026.3 1026.2 0.0
25/05:30am 6.1 5.1 5.8 98 0.1 CALM 0 0 0 0 1026.1 1026.0 0.0
25/05:00am 6.2 5.2 5.8 97 0.2 CALM 0 0 0 0 1025.9 1025.8 0.0
25/04:30am 5.9 4.8 5.3 96 0.3 CALM 0 0 0 0 1025.7 1025.6 0.0
25/04:00am 5.8 4.7 5.1 95 0.3 CALM 0 0 0 0 1025.5 1025.4 0.0
25/03:30am 5.9 4.8 5.0 94 0.4 CALM 0 0 0 0 1025.5 1025.4 0.0
25/03:00am 6.5 5.5 5.5 93 0.4 CALM 0 0 0 0 1025.5 1025.4 0.0
25/02:30am 6.5 5.4 5.1 91 0.6 CALM 0 0 0 0 1025.8 1025.7 0.0
25/02:00am 7.0 6.0 5.5 90 0.7 CALM 0 0 0 0 1025.8 1025.7 0.0
25/01:30am 7.2 6.1 5.3 88 0.8 CALM 0 0 0 0 1025.8 1025.7 0.0
25/01:00am 7.4 6.2 4.7 83 1.2 CALM 0 0 0 0 1025.8 1025.7 0.0
25/12:30am 9.0 8.0 5.7 80 1.5 CALM 0 6 0 3 1025.6 1025.5 0.0
25/12:00am 10.2 8.3 6.7 79 1.6 S 6 9 3 5 1025.6 1025.5 0.0
 
Date/Time
WST
Temp
°C
App
Temp
°C
Dew
Point
°C
Rel
Hum
%
Delta-T
°C
Wind Press
QNH
hPa
Press
MSL
hPa
Rain since
9am
mm
Dir  Spd
km/h
Gust
km/h
Spd
kts
Gust
kts
24/11:30pm 10.3 8.0 7.4 82 1.4 SSW 9 13 5 7 1025.4 1025.3 0.0
24/11:00pm 10.7 8.7 8.5 86 1.1 S 9 13 5 7 1025.5 1025.4 0.0
24/10:30pm 10.4 8.7 8.3 87 1.0 S 7 9 4 5 1025.6 1025.5 0.0
24/10:00pm 10.6 9.2 8.7 88 0.9 SSW 6 13 3 7 1025.6 1025.5 0.0
24/09:30pm 10.5 9.4 8.4 87 1.0 S 4 9 2 5 1025.4 1025.3 0.0
24/09:00pm 10.8 9.2 8.7 87 1.0 S 7 11 4 6 1025.2 1025.1 0.0
24/08:30pm 10.3 9.8 7.9 85 1.2 CALM 0 0 0 0 1025.0 1024.9 0.0
24/08:00pm 11.1 10.6 8.0 81 1.5 CALM 0 0 0 0 1025.0 1024.9 0.0
24/07:30pm 12.6 10.6 8.7 77 2.0 SSE 9 13 5 7 1025.1 1025.0 0.0
24/07:00pm 13.5 11.3 9.2 75 2.2 SSE 11 15 6 8 1024.8 1024.7 0.0
24/06:30pm 13.6 11.3 8.9 73 2.4 SSE 11 15 6 8 1024.4 1024.3 0.0
24/06:00pm 14.3 11.3 9.1 71 2.6 SSE 15 22 8 12 1024.1 1024.0 0.0
24/05:30pm 15.1 10.8 9.5 69 2.9 SSE 22 32 12 17 1023.7 1023.6 0.0
24/05:00pm 15.9 11.3 9.8 67 3.2 SSE 24 33 13 18 1023.6 1023.5 0.0
24/04:30pm 16.6 12.5 10.2 66 3.4 SSE 22 32 12 17 1023.5 1023.3 0.0
24/04:00pm 17.1 12.7 10.5 65 3.5 S 24 32 13 17 1023.4 1023.2 0.0
24/03:30pm 17.6 13.2 10.5 63 3.8 SSE 24 33 13 18 1023.2 1023.0 0.0
24/03:00pm 17.3 12.5 10.2 63 3.8 SSE 26 35 14 19 1023.1 1022.9 0.0
24/02:30pm 18.0 13.7 10.9 63 3.8 S 24 35 13 19 1022.8 1022.6 0.0
24/02:00pm 18.0 13.9 11.3 65 3.6 SSE 24 37 13 20 1022.9 1022.7 0.0
24/01:30pm 18.6 14.2 11.7 64 3.8 SSE 26 39 14 21 1022.7 1022.5 0.0
24/01:00pm 18.5 13.3 12.7 69 3.2 SSE 32 41 17 22 1022.9 1022.7 0.0
24/12:30pm 17.7 14.0 13.8 78 2.2 SSE 26 35 14 19 1023.3 1023.1 0.0
24/12:00pm 19.0 15.4 13.0 68 3.4 SSE 24 37 13 20 1023.6 1023.5 0.0
24/11:30am 17.6 15.0 13.7 78 2.2 SSE 20 30 11 16 1024.0 1023.9 0.0
24/11:00am 17.4 14.6 13.1 76 2.4 SSE 20 28 11 15 1024.2 1024.1 0.0
24/10:30am 17.8 15.2 13.1 74 2.6 SSE 19 24 10 13 1024.5 1024.4 0.0
24/10:00am 17.3 16.0 13.6 79 2.1 ESE 13 20 7 11 1024.5 1024.4 0.0
24/09:30am 16.4 14.5 13.1 81 1.8 SE 15 20 8 11 1024.7 1024.6 0.0
24/09:00am 16.3 15.1 14.0 86 1.3 ESE 13 20 7 11 1024.7 1024.6 0.0
24/08:30am 14.8 14.3 13.7 93 0.6 SE 9 13 5 7 1024.6 1024.5 0.0
24/08:00am 14.4 14.1 13.4 94 0.6 ESE 7 15 4 8 1024.3 1024.2 0.0
24/07:30am 14.0 14.2 12.9 93 0.6 ESE 4 11 2 6 1024.2 1024.1 0.0
24/07:00am 14.0 13.5 12.7 92 0.7 SSE 7 11 4 6 1024.0 1023.9 0.0
24/06:30am 14.0 13.7 12.7 92 0.7 ESE 6 9 3 5 1023.7 1023.6 0.0
24/06:00am 14.1 13.3 12.8 92 0.7 SE 9 13 5 7 1023.5 1023.3 0.0
24/05:30am 14.5 13.5 13.5 94 0.6 SE 11 17 6 9 1023.4 1023.2 0.0
24/05:00am 14.3 13.8 13.7 96 0.3 SE 9 15 5 8 1023.2 1023.0 0.0
24/04:30am 14.1 13.2 13.6 97 0.3 SE 11 19 6 10 1023.2 1023.0 0.0
24/04:00am 14.1 12.8 13.6 97 0.3 SE 13 19 7 10 1023.2 1023.0 0.0
24/03:30am 14.1 12.4 13.6 97 0.3 SSE 15 20 8 11 1023.2 1023.0 0.0
24/03:00am 13.7 12.6 13.1 96 0.3 SSE 11 17 6 9 1023.2 1023.0 0.0
24/02:30am 13.8 12.6 12.9 94 0.5 SSE 11 13 6 7 1023.3 1023.1 0.0
24/02:00am 14.3 13.2 13.2 93 0.6 SE 11 15 6 8 1023.5 1023.3 0.0
24/01:30am 14.3 12.8 13.2 93 0.6 SE 13 17 7 9 1023.7 1023.6 0.0
24/01:00am 14.4 12.5 13.1 92 0.7 SE 15 22 8 12 1023.7 1023.6 0.0
24/12:30am 14.5 13.0 13.0 91 0.8 SE 13 22 7 12 1023.8 1023.7 0.0
24/12:00am 14.4 12.7 12.6 89 1.0 SSE 13 17 7 9 1023.9 1023.8 0.0
 
Date/Time
WST
Temp
°C
App
Temp
°C
Dew
Point
°C
Rel
Hum
%
Delta-T
°C
Wind Press
QNH
hPa
Press
MSL
hPa
Rain since
9am
mm
Dir  Spd
km/h
Gust
km/h
Spd
kts
Gust
kts
23/11:30pm 14.7 12.7 12.6 87 1.2 SE 15 22 8 12 1023.7 1023.6 0.0
23/11:00pm 14.8 13.1 12.5 86 1.3 SE 13 19 7 10 1024.1 1024.0 0.0
23/10:30pm 14.9 13.1 12.2 84 1.5 SE 13 19 7 10 1024.2 1024.1 0.0
23/10:00pm 15.0 12.4 12.1 83 1.6 SE 17 22 9 12 1024.3 1024.2 0.0
23/09:30pm 15.4 12.9 12.2 81 1.8 SE 17 24 9 13 1024.4 1024.3 0.0
23/09:00pm 15.5 13.0 12.3 81 1.7 SE 17 24 9 13 1024.3 1024.2 0.0
23/08:30pm 15.5 12.9 12.1 80 1.9 SE 17 24 9 13 1024.0 1023.9 0.0
23/08:00pm 15.5 12.5 12.1 80 1.8 SE 19 24 10 13 1023.8 1023.7 0.0
23/07:30pm 15.6 13.0 12.0 79 2.0 SE 17 24 9 13 1023.7 1023.6 0.0
23/07:00pm 15.9 13.6 11.9 77 2.2 SE 15 22 8 12 1023.3 1023.1 0.0
23/06:30pm 16.3 13.7 11.9 75 2.4 SE 17 22 9 12 1023.2 1023.0 0.0
23/06:00pm 16.8 14.2 11.9 73 2.7 SE 17 28 9 15 1022.9 1022.7 0.0
23/05:30pm 17.4 14.2 11.9 70 3.0 SE 20 32 11 17 1022.7 1022.5 0.0
23/05:00pm 18.3 14.9 12.5 69 3.2 SE 22 32 12 17 1022.6 1022.4 0.0
23/04:30pm 18.5 13.9 12.3 67 3.5 SE 28 37 15 20 1022.2 1022.0 0.0
23/04:00pm 19.1 14.5 12.4 65 3.7 SE 28 41 15 22 1022.2 1022.0 0.0

Other Formats:

Comma delimited format used in spreadsheet applications
http://www.bom.gov.au/fwo/IDW60801/IDW60801.95641.axf

JavaScript Object Notation format (JSON) in row-major order
http://www.bom.gov.au/fwo/IDW60801/IDW60801.95641.json